createdAt,value
2023-03-29T00:05:46.445Z,-0.30
2023-03-29T00:08:14.788Z,-0.20
2023-03-29T00:13:09.516Z,-0.10
2023-03-29T00:15:36.457Z,-0.10
2023-03-29T00:18:03.571Z,-0.20
2023-03-29T00:20:30.681Z,-0.20
2023-03-29T00:25:25.102Z,-0.20
2023-03-29T00:27:52.084Z,-0.20
2023-03-29T00:35:13.983Z,-0.10
2023-03-29T00:37:41.396Z,-0.10
2023-03-29T00:40:10.896Z,-0.10
2023-03-29T00:45:25.625Z,-0.20
2023-03-29T00:47:57.891Z,0.00
2023-03-29T00:50:29.808Z,0.00
2023-03-29T00:53:03.766Z,0.00
2023-03-29T00:55:39.140Z,0.00
2023-03-29T00:58:10.043Z,0.00
2023-03-29T01:00:52.689Z,0.00
2023-03-29T01:03:24.966Z,0.00
2023-03-29T01:05:57.321Z,0.00
2023-03-29T01:08:29.620Z,0.00
2023-03-29T01:11:11.720Z,0.00
2023-03-29T01:13:46.263Z,0.00
2023-03-29T01:16:20.245Z,0.00
2023-03-29T01:18:48.208Z,0.00
2023-03-29T01:21:37.942Z,0.30
2023-03-29T01:24:15.311Z,0.00
2023-03-29T01:27:03.216Z,0.00
2023-03-29T01:29:40.237Z,0.00
2023-03-29T01:32:16.434Z,-0.10
2023-03-29T01:35:02.665Z,-0.10
2023-03-29T01:37:37.641Z,-0.10
2023-03-29T01:45:26.958Z,-0.20
2023-03-29T01:48:00.094Z,-0.20
2023-03-29T01:51:03.886Z,-0.20
2023-03-29T01:54:01.761Z,-0.20
2023-03-29T01:56:29.981Z,-0.20
2023-03-29T01:59:07.759Z,-0.20
2023-03-29T02:01:49.290Z,-0.20
2023-03-29T02:04:22.858Z,-0.20
2023-03-29T02:06:54.198Z,-0.20
2023-03-29T02:11:51.217Z,-0.20
2023-03-29T02:14:18.154Z,-0.20
2023-03-29T02:16:46.409Z,-0.10
2023-03-29T02:22:08.360Z,-0.10
2023-03-29T02:24:36.982Z,-0.10
2023-03-29T02:27:05.472Z,-0.10
2023-03-29T02:29:35.442Z,1.50
2023-03-29T02:32:13.312Z,-0.10
2023-03-29T02:35:18.159Z,-0.10
2023-03-29T02:37:49.541Z,-0.10
2023-03-29T02:42:46.125Z,-0.10
2023-03-29T02:45:17.235Z,-0.10
2023-03-29T02:47:52.227Z,-0.10
2023-03-29T02:50:20.603Z,-0.10
2023-03-29T02:52:59.262Z,-0.20
2023-03-29T02:55:34.997Z,-0.20
2023-03-29T02:58:08.402Z,-0.20
2023-03-29T03:00:42.482Z,-0.10
2023-03-29T03:03:10.316Z,-0.20
2023-03-29T03:05:38.330Z,-0.10
2023-03-29T03:08:07.345Z,-0.20
2023-03-29T03:15:31.193Z,-0.20
2023-03-29T03:17:58.250Z,-0.20
2023-03-29T03:20:26.606Z,-0.20
2023-03-29T03:25:21.802Z,-0.20
2023-03-29T03:27:49.770Z,-0.20
2023-03-29T03:30:17.267Z,-0.20
2023-03-29T03:32:44.740Z,-0.30
2023-03-29T03:40:17.439Z,-0.20
2023-03-29T03:42:44.520Z,-0.20
2023-03-29T03:45:12.275Z,-0.20
2023-03-29T03:50:07.520Z,-0.20
2023-03-29T03:52:35.627Z,-0.20
2023-03-29T03:55:02.991Z,-0.20
2023-03-29T04:02:24.519Z,-0.20
2023-03-29T04:07:19.039Z,-0.20
2023-03-29T04:14:40.837Z,-0.10
2023-03-29T04:22:02.796Z,-0.20
2023-03-29T04:24:29.767Z,-0.10
2023-03-29T04:29:24.065Z,-0.10
2023-03-29T04:34:18.474Z,-0.10
2023-03-29T04:36:45.544Z,-0.10
2023-03-29T04:44:08.448Z,-0.10
2023-03-29T04:46:35.557Z,-0.20
2023-03-29T04:49:02.924Z,-0.10
2023-03-29T04:51:31.558Z,0.00
2023-03-29T04:53:58.643Z,-1.20
2023-03-29T04:56:26.454Z,-0.10
2023-03-29T04:58:56.581Z,-0.10
2023-03-29T05:01:23.730Z,0.00
2023-03-29T05:06:18.245Z,0.00
2023-03-29T05:08:45.312Z,-0.10
2023-03-29T05:11:13.728Z,0.10
2023-03-29T05:16:08.911Z,0.10
2023-03-29T05:18:36.011Z,0.10
2023-03-29T05:21:04.333Z,0.10
2023-03-29T05:25:59.327Z,-0.10
2023-03-29T05:28:27.188Z,0.10
2023-03-29T05:31:05.852Z,-0.40
2023-03-29T05:33:33.791Z,0.40
2023-03-29T05:36:02.762Z,0.60
2023-03-29T05:38:30.263Z,0.40
2023-03-29T05:40:57.650Z,0.20
2023-03-29T05:43:24.853Z,0.20
2023-03-29T05:45:56.008Z,0.30
2023-03-29T05:48:24.307Z,0.30
2023-03-29T05:50:54.597Z,0.40
2023-03-29T05:53:24.094Z,0.80
2023-03-29T05:55:51.712Z,0.60
2023-03-29T06:00:51.855Z,0.70
2023-03-29T06:03:25.508Z,0.80
2023-03-29T06:06:00.621Z,0.70
2023-03-29T06:08:28.610Z,0.60
2023-03-29T06:11:05.078Z,0.50
2023-03-29T06:13:34.135Z,0.40
2023-03-29T06:16:01.578Z,0.10
2023-03-29T06:18:28.621Z,0.30
2023-03-29T06:20:56.066Z,1.00
2023-03-29T06:23:23.457Z,0.20
2023-03-29T06:25:53.376Z,0.20
2023-03-29T06:28:20.501Z,0.60
2023-03-29T06:30:49.099Z,0.10
2023-03-29T06:33:17.044Z,0.00
2023-03-29T06:35:46.298Z,-0.10
2023-03-29T06:38:13.906Z,0.00
2023-03-29T06:40:41.190Z,-0.50
2023-03-29T06:43:08.413Z,-0.30
2023-03-29T06:45:37.424Z,0.00
2023-03-29T06:55:29.327Z,0.10
2023-03-29T06:57:56.351Z,0.30
2023-03-29T07:00:30.002Z,0.40
2023-03-29T07:02:59.065Z,0.60
2023-03-29T07:05:29.517Z,0.50
2023-03-29T07:08:08.346Z,0.70
2023-03-29T07:10:41.288Z,0.60
2023-03-29T07:13:13.338Z,0.50
2023-03-29T07:15:41.703Z,2.60
2023-03-29T07:25:34.132Z,0.50
2023-03-29T07:28:01.622Z,0.60
2023-03-29T07:30:32.047Z,-1.10
2023-03-29T07:33:00.579Z,0.70
2023-03-29T07:37:56.029Z,1.10
2023-03-29T07:40:24.218Z,1.50
2023-03-29T07:42:54.179Z,1.70
2023-03-29T07:45:26.928Z,1.60
2023-03-29T07:47:57.760Z,1.60
2023-03-29T07:52:54.053Z,1.20
2023-03-29T07:55:21.137Z,1.10
2023-03-29T07:57:49.797Z,1.00
2023-03-29T08:00:17.594Z,1.00
2023-03-29T08:02:46.710Z,0.90
2023-03-29T08:05:19.014Z,0.90
2023-03-29T08:07:50.676Z,0.80
2023-03-29T08:10:19.991Z,0.80
2023-03-29T08:12:48.802Z,0.90
2023-03-29T08:20:13.477Z,1.20
2023-03-29T08:22:40.471Z,1.40
2023-03-29T08:25:08.392Z,1.60
2023-03-29T08:27:37.747Z,1.80
2023-03-29T08:30:09.571Z,1.80
2023-03-29T08:32:38.044Z,2.00
2023-03-29T08:35:06.819Z,1.40
2023-03-29T08:37:33.990Z,2.30
2023-03-29T08:40:01.502Z,1.90
2023-03-29T08:42:34.686Z,2.00
2023-03-29T08:48:11.750Z,2.00
2023-03-29T08:50:48.039Z,1.90
2023-03-29T08:53:40.160Z,1.90
2023-03-29T08:56:15.663Z,1.90
2023-03-29T08:58:43.550Z,2.00
2023-03-29T09:01:11.640Z,2.10
2023-03-29T09:03:45.095Z,2.30
2023-03-29T09:06:13.603Z,2.60
2023-03-29T09:08:43.909Z,3.20
2023-03-29T09:19:25.185Z,4.00
2023-03-29T09:22:28.185Z,3.70
2023-03-29T09:43:04.321Z,3.50
2023-03-29T10:13:12.468Z,3.30
2023-03-29T10:15:40.469Z,3.30
2023-03-29T10:20:40.823Z,3.50
2023-03-29T10:33:20.794Z,3.60
2023-03-29T10:43:39.793Z,3.80
2023-03-29T11:01:23.680Z,3.70
2023-03-29T11:12:01.059Z,3.80
2023-03-29T11:14:45.234Z,3.70
2023-03-29T11:17:23.776Z,3.50
2023-03-29T11:22:41.118Z,3.20
2023-03-29T11:33:32.393Z,4.40
2023-03-29T11:44:22.821Z,4.10
2023-03-29T11:52:04.394Z,3.30
2023-03-29T11:57:44.189Z,3.20
2023-03-29T12:05:34.504Z,3.10
2023-03-29T12:16:30.200Z,3.00
2023-03-29T12:32:07.950Z,2.40
2023-03-29T12:34:57.039Z,2.40
2023-03-29T12:37:51.540Z,2.30
2023-03-29T12:40:20.944Z,3.50
2023-03-29T12:43:04.971Z,2.40
2023-03-29T12:45:42.902Z,2.60
2023-03-29T12:48:17.663Z,2.70
2023-03-29T12:53:25.355Z,3.60
2023-03-29T12:55:56.016Z,2.30
2023-03-29T12:58:27.807Z,2.40
2023-03-29T13:01:10.276Z,2.40
2023-03-29T13:03:40.020Z,2.50
2023-03-29T13:06:13.146Z,2.40
2023-03-29T13:08:45.231Z,2.60
2023-03-29T13:11:25.987Z,2.60
2023-03-29T13:13:53.392Z,2.60
2023-03-29T13:16:29.336Z,2.60
2023-03-29T13:19:11.878Z,2.40
2023-03-29T13:22:06.328Z,2.60
2023-03-29T13:24:50.591Z,2.60
2023-03-29T13:27:26.535Z,2.60
2023-03-29T13:29:59.057Z,3.10
2023-03-29T13:41:27.864Z,3.80
2023-03-29T13:43:56.447Z,3.60
2023-03-29T13:49:27.336Z,3.90
2023-03-29T13:54:41.944Z,3.20
2023-03-29T14:00:00.818Z,3.20
2023-03-29T14:09:58.707Z,3.20
2023-03-29T14:19:59.038Z,3.00
2023-03-29T14:25:06.150Z,2.90
2023-03-29T14:27:37.326Z,2.90
2023-03-29T14:30:21.767Z,3.00
2023-03-29T14:45:18.072Z,2.90
2023-03-29T14:50:24.572Z,2.90
2023-03-29T15:05:37.278Z,2.80
2023-03-29T15:10:37.519Z,2.80
2023-03-29T15:13:12.455Z,2.80
2023-03-29T15:15:40.243Z,2.80
2023-03-29T15:20:39.542Z,3.00
2023-03-29T15:23:22.076Z,3.10
2023-03-29T15:28:35.487Z,3.00
2023-03-29T15:31:12.211Z,3.10
2023-03-29T15:36:10.574Z,2.90
2023-03-29T15:38:44.775Z,2.30
2023-03-29T15:41:15.461Z,2.60
2023-03-29T15:58:38.298Z,2.10
2023-03-29T22:46:53.879Z,-3.10
2023-03-29T23:31:18.239Z,-3.30
2023-03-29T23:41:13.068Z,-3.50
2023-03-29T23:46:15.515Z,-3.40
